sensor_id;sensor_type;location;lat;lon;timestamp;temperature;humidity
27072;DHT22;14613;46.308;25.288;2023-11-19T00:00:36;5.70;90.60
27072;DHT22;14613;46.308;25.288;2023-11-19T00:03:02;5.70;90.50
27072;DHT22;14613;46.308;25.288;2023-11-19T00:05:27;5.70;90.50
27072;DHT22;14613;46.308;25.288;2023-11-19T00:07:54;5.70;90.60
27072;DHT22;14613;46.308;25.288;2023-11-19T00:10:20;5.70;90.60
27072;DHT22;14613;46.308;25.288;2023-11-19T00:12:49;5.70;90.60
27072;DHT22;14613;46.308;25.288;2023-11-19T00:15:16;5.70;90.50
27072;DHT22;14613;46.308;25.288;2023-11-19T00:17:45;5.70;90.50
27072;DHT22;14613;46.308;25.288;2023-11-19T00:20:16;5.80;90.50
27072;DHT22;14613;46.308;25.288;2023-11-19T00:22:42;5.80;90.40
27072;DHT22;14613;46.308;25.288;2023-11-19T00:25:09;5.70;90.40
27072;DHT22;14613;46.308;25.288;2023-11-19T00:27:35;5.70;90.40
27072;DHT22;14613;46.308;25.288;2023-11-19T00:30:01;5.70;90.60
27072;DHT22;14613;46.308;25.288;2023-11-19T00:32:31;5.70;90.60
27072;DHT22;14613;46.308;25.288;2023-11-19T00:34:56;5.70;90.70
27072;DHT22;14613;46.308;25.288;2023-11-19T00:37:22;5.70;90.60
27072;DHT22;14613;46.308;25.288;2023-11-19T00:39:48;5.70;90.60
27072;DHT22;14613;46.308;25.288;2023-11-19T00:42:13;5.80;90.60
27072;DHT22;14613;46.308;25.288;2023-11-19T00:44:39;5.80;90.60
27072;DHT22;14613;46.308;25.288;2023-11-19T00:47:06;5.80;90.50
27072;DHT22;14613;46.308;25.288;2023-11-19T00:49:32;5.80;90.50
27072;DHT22;14613;46.308;25.288;2023-11-19T00:52:00;5.80;90.40
27072;DHT22;14613;46.308;25.288;2023-11-19T00:54:27;5.80;90.40
27072;DHT22;14613;46.308;25.288;2023-11-19T00:56:53;5.80;90.80
27072;DHT22;14613;46.308;25.288;2023-11-19T00:59:19;5.80;90.40
27072;DHT22;14613;46.308;25.288;2023-11-19T01:01:45;5.80;90.40
27072;DHT22;14613;46.308;25.288;2023-11-19T01:04:11;5.80;90.50
27072;DHT22;14613;46.308;25.288;2023-11-19T01:06:36;5.80;90.40
27072;DHT22;14613;46.308;25.288;2023-11-19T01:09:02;5.80;90.40
27072;DHT22;14613;46.308;25.288;2023-11-19T01:11:28;5.80;90.40
27072;DHT22;14613;46.308;25.288;2023-11-19T01:13:54;5.80;90.40
27072;DHT22;14613;46.308;25.288;2023-11-19T01:16:20;5.80;90.40
27072;DHT22;14613;46.308;25.288;2023-11-19T01:18:49;5.80;90.40
27072;DHT22;14613;46.308;25.288;2023-11-19T01:21:17;5.90;90.30
27072;DHT22;14613;46.308;25.288;2023-11-19T01:23:43;5.90;90.30
27072;DHT22;14613;46.308;25.288;2023-11-19T01:26:12;5.90;90.30
27072;DHT22;14613;46.308;25.288;2023-11-19T01:28:39;5.80;90.20
27072;DHT22;14613;46.308;25.288;2023-11-19T01:31:05;5.80;90.20
27072;DHT22;14613;46.308;25.288;2023-11-19T01:33:35;5.80;90.20
27072;DHT22;14613;46.308;25.288;2023-11-19T01:36:01;5.80;90.30
27072;DHT22;14613;46.308;25.288;2023-11-19T01:38:27;5.90;90.60
27072;DHT22;14613;46.308;25.288;2023-11-19T01:40:56;5.90;90.20
27072;DHT22;14613;46.308;25.288;2023-11-19T01:43:39;5.90;90.20
27072;DHT22;14613;46.308;25.288;2023-11-19T01:46:08;5.90;90.20
27072;DHT22;14613;46.308;25.288;2023-11-19T01:48:42;5.90;90.10
27072;DHT22;14613;46.308;25.288;2023-11-19T01:51:10;5.90;90.10
27072;DHT22;14613;46.308;25.288;2023-11-19T01:53:38;5.90;90.10
27072;DHT22;14613;46.308;25.288;2023-11-19T01:56:08;5.90;90.10
27072;DHT22;14613;46.308;25.288;2023-11-19T01:58:37;5.90;90.00
27072;DHT22;14613;46.308;25.288;2023-11-19T02:01:05;5.90;90.00
27072;DHT22;14613;46.308;25.288;2023-11-19T02:03:32;5.90;90.00
27072;DHT22;14613;46.308;25.288;2023-11-19T02:05:59;5.90;89.90
27072;DHT22;14613;46.308;25.288;2023-11-19T02:08:25;5.90;89.90
27072;DHT22;14613;46.308;25.288;2023-11-19T02:10:52;5.90;89.90
27072;DHT22;14613;46.308;25.288;2023-11-19T02:13:18;5.90;89.90
27072;DHT22;14613;46.308;25.288;2023-11-19T02:15:44;5.90;89.80
27072;DHT22;14613;46.308;25.288;2023-11-19T02:18:23;5.90;89.80
27072;DHT22;14613;46.308;25.288;2023-11-19T02:20:50;5.90;89.70
27072;DHT22;14613;46.308;25.288;2023-11-19T02:23:16;5.90;89.70
27072;DHT22;14613;46.308;25.288;2023-11-19T02:25:44;5.80;89.60
27072;DHT22;14613;46.308;25.288;2023-11-19T02:28:12;5.80;89.60
27072;DHT22;14613;46.308;25.288;2023-11-19T02:30:38;5.90;89.70
27072;DHT22;14613;46.308;25.288;2023-11-19T02:33:04;5.90;89.70
27072;DHT22;14613;46.308;25.288;2023-11-19T02:35:34;5.90;89.70
27072;DHT22;14613;46.308;25.288;2023-11-19T02:38:00;5.80;89.70
27072;DHT22;14613;46.308;25.288;2023-11-19T02:40:26;5.80;90.20
27072;DHT22;14613;46.308;25.288;2023-11-19T02:42:53;5.80;89.80
27072;DHT22;14613;46.308;25.288;2023-11-19T02:45:20;5.70;89.90
27072;DHT22;14613;46.308;25.288;2023-11-19T02:47:47;5.70;90.00
27072;DHT22;14613;46.308;25.288;2023-11-19T02:50:13;5.70;90.00
27072;DHT22;14613;46.308;25.288;2023-11-19T02:52:42;5.70;89.90
27072;DHT22;14613;46.308;25.288;2023-11-19T02:55:08;5.70;89.80
27072;DHT22;14613;46.308;25.288;2023-11-19T02:57:41;5.70;89.90
27072;DHT22;14613;46.308;25.288;2023-11-19T03:00:18;5.80;89.90
27072;DHT22;14613;46.308;25.288;2023-11-19T03:02:49;5.80;89.70
27072;DHT22;14613;46.308;25.288;2023-11-19T03:05:24;5.80;89.60
27072;DHT22;14613;46.308;25.288;2023-11-19T03:07:50;5.80;89.50
27072;DHT22;14613;46.308;25.288;2023-11-19T03:10:16;5.80;89.30
27072;DHT22;14613;46.308;25.288;2023-11-19T03:12:43;5.80;89.20
27072;DHT22;14613;46.308;25.288;2023-11-19T03:15:09;5.80;89.10
27072;DHT22;14613;46.308;25.288;2023-11-19T03:17:39;5.80;89.00
27072;DHT22;14613;46.308;25.288;2023-11-19T03:20:07;5.80;89.00
27072;DHT22;14613;46.308;25.288;2023-11-19T03:22:38;5.80;89.00
27072;DHT22;14613;46.308;25.288;2023-11-19T03:25:04;5.80;88.90
27072;DHT22;14613;46.308;25.288;2023-11-19T03:27:30;5.80;89.00
27072;DHT22;14613;46.308;25.288;2023-11-19T03:29:55;5.70;89.00
27072;DHT22;14613;46.308;25.288;2023-11-19T03:32:21;5.70;89.20
27072;DHT22;14613;46.308;25.288;2023-11-19T03:34:47;5.60;89.20
27072;DHT22;14613;46.308;25.288;2023-11-19T03:37:12;5.60;89.30
27072;DHT22;14613;46.308;25.288;2023-11-19T03:39:42;5.50;89.50
27072;DHT22;14613;46.308;25.288;2023-11-19T03:42:07;5.50;89.50
27072;DHT22;14613;46.308;25.288;2023-11-19T03:44:33;5.50;89.50
27072;DHT22;14613;46.308;25.288;2023-11-19T03:46:59;5.40;89.60
27072;DHT22;14613;46.308;25.288;2023-11-19T03:49:24;5.40;89.80
27072;DHT22;14613;46.308;25.288;2023-11-19T03:51:50;5.30;89.90
27072;DHT22;14613;46.308;25.288;2023-11-19T03:54:16;5.30;90.00
27072;DHT22;14613;46.308;25.288;2023-11-19T03:56:41;5.20;90.00
27072;DHT22;14613;46.308;25.288;2023-11-19T03:59:07;5.20;90.00
27072;DHT22;14613;46.308;25.288;2023-11-19T04:01:35;5.10;90.00
27072;DHT22;14613;46.308;25.288;2023-11-19T04:04:01;5.10;90.10
27072;DHT22;14613;46.308;25.288;2023-11-19T04:06:27;5.10;90.10
27072;DHT22;14613;46.308;25.288;2023-11-19T04:08:52;5.10;90.00
27072;DHT22;14613;46.308;25.288;2023-11-19T04:11:18;5.10;90.00
27072;DHT22;14613;46.308;25.288;2023-11-19T04:13:44;5.10;90.00
27072;DHT22;14613;46.308;25.288;2023-11-19T04:16:09;5.10;89.80
27072;DHT22;14613;46.308;25.288;2023-11-19T04:18:35;5.10;89.70
27072;DHT22;14613;46.308;25.288;2023-11-19T04:21:01;5.00;89.50
27072;DHT22;14613;46.308;25.288;2023-11-19T04:23:26;5.10;89.50
27072;DHT22;14613;46.308;25.288;2023-11-19T04:25:52;5.00;89.50
27072;DHT22;14613;46.308;25.288;2023-11-19T04:28:18;5.00;89.50
27072;DHT22;14613;46.308;25.288;2023-11-19T04:30:44;5.00;89.30
27072;DHT22;14613;46.308;25.288;2023-11-19T04:33:10;4.90;89.20
27072;DHT22;14613;46.308;25.288;2023-11-19T04:35:35;4.90;89.20
27072;DHT22;14613;46.308;25.288;2023-11-19T04:38:02;4.90;89.20
27072;DHT22;14613;46.308;25.288;2023-11-19T04:40:27;4.80;89.10
27072;DHT22;14613;46.308;25.288;2023-11-19T04:42:53;4.80;89.10
27072;DHT22;14613;46.308;25.288;2023-11-19T04:45:19;4.80;89.20
27072;DHT22;14613;46.308;25.288;2023-11-19T04:47:45;4.80;89.20
27072;DHT22;14613;46.308;25.288;2023-11-19T04:50:11;4.70;89.30
27072;DHT22;14613;46.308;25.288;2023-11-19T04:52:40;4.70;89.40
27072;DHT22;14613;46.308;25.288;2023-11-19T04:55:06;4.70;89.40
27072;DHT22;14613;46.308;25.288;2023-11-19T04:57:32;4.60;89.60
27072;DHT22;14613;46.308;25.288;2023-11-19T04:59:58;4.60;89.60
27072;DHT22;14613;46.308;25.288;2023-11-19T05:02:24;4.60;89.60
27072;DHT22;14613;46.308;25.288;2023-11-19T05:04:50;4.60;89.60
27072;DHT22;14613;46.308;25.288;2023-11-19T05:07:15;4.60;89.60
27072;DHT22;14613;46.308;25.288;2023-11-19T05:09:41;4.60;89.60
27072;DHT22;14613;46.308;25.288;2023-11-19T05:12:08;4.60;89.60
27072;DHT22;14613;46.308;25.288;2023-11-19T05:14:37;4.60;89.50
27072;DHT22;14613;46.308;25.288;2023-11-19T05:17:03;4.60;89.40
27072;DHT22;14613;46.308;25.288;2023-11-19T05:19:29;4.60;89.40
27072;DHT22;14613;46.308;25.288;2023-11-19T05:21:55;4.60;89.40
27072;DHT22;14613;46.308;25.288;2023-11-19T05:24:20;4.60;89.30
27072;DHT22;14613;46.308;25.288;2023-11-19T05:26:46;4.60;89.30
27072;DHT22;14613;46.308;25.288;2023-11-19T05:29:12;4.50;89.10
27072;DHT22;14613;46.308;25.288;2023-11-19T05:31:38;4.50;89.10
27072;DHT22;14613;46.308;25.288;2023-11-19T05:34:04;4.50;89.10
27072;DHT22;14613;46.308;25.288;2023-11-19T05:36:29;4.50;89.20
27072;DHT22;14613;46.308;25.288;2023-11-19T05:38:55;4.40;89.10
27072;DHT22;14613;46.308;25.288;2023-11-19T05:41:21;4.40;89.30
27072;DHT22;14613;46.308;25.288;2023-11-19T05:43:47;4.30;89.30
27072;DHT22;14613;46.308;25.288;2023-11-19T05:46:12;4.30;89.40
27072;DHT22;14613;46.308;25.288;2023-11-19T05:48:38;4.30;89.50
27072;DHT22;14613;46.308;25.288;2023-11-19T05:51:04;4.40;89.60
27072;DHT22;14613;46.308;25.288;2023-11-19T05:53:31;4.40;89.50
27072;DHT22;14613;46.308;25.288;2023-11-19T05:55:57;4.40;89.40
27072;DHT22;14613;46.308;25.288;2023-11-19T05:58:26;4.40;89.40
27072;DHT22;14613;46.308;25.288;2023-11-19T06:00:58;4.30;89.30
27072;DHT22;14613;46.308;25.288;2023-11-19T06:03:26;4.30;89.60
27072;DHT22;14613;46.308;25.288;2023-11-19T06:05:52;4.30;89.80
27072;DHT22;14613;46.308;25.288;2023-11-19T06:08:19;4.30;89.90
27072;DHT22;14613;46.308;25.288;2023-11-19T06:10:46;4.30;89.90
27072;DHT22;14613;46.308;25.288;2023-11-19T06:13:13;4.40;89.90
27072;DHT22;14613;46.308;25.288;2023-11-19T06:15:41;4.40;89.80
27072;DHT22;14613;46.308;25.288;2023-11-19T06:18:07;4.40;89.70
27072;DHT22;14613;46.308;25.288;2023-11-19T06:20:33;4.50;89.70
27072;DHT22;14613;46.308;25.288;2023-11-19T06:23:00;4.50;89.70
27072;DHT22;14613;46.308;25.288;2023-11-19T06:25:26;4.60;89.70
27072;DHT22;14613;46.308;25.288;2023-11-19T06:27:52;4.60;89.70
27072;DHT22;14613;46.308;25.288;2023-11-19T06:30:18;4.60;89.80
27072;DHT22;14613;46.308;25.288;2023-11-19T06:32:45;4.60;89.60
27072;DHT22;14613;46.308;25.288;2023-11-19T06:35:11;4.70;89.70
27072;DHT22;14613;46.308;25.288;2023-11-19T06:37:39;4.70;89.90
27072;DHT22;14613;46.308;25.288;2023-11-19T06:40:05;4.70;90.00
27072;DHT22;14613;46.308;25.288;2023-11-19T06:42:31;4.80;90.10
27072;DHT22;14613;46.308;25.288;2023-11-19T06:44:57;4.90;90.20
27072;DHT22;14613;46.308;25.288;2023-11-19T06:47:26;4.90;90.10
27072;DHT22;14613;46.308;25.288;2023-11-19T06:49:55;4.90;90.00
27072;DHT22;14613;46.308;25.288;2023-11-19T06:52:21;5.00;90.00
27072;DHT22;14613;46.308;25.288;2023-11-19T06:54:47;5.00;90.00
27072;DHT22;14613;46.308;25.288;2023-11-19T06:57:13;5.00;90.00
27072;DHT22;14613;46.308;25.288;2023-11-19T06:59:38;5.00;90.00
27072;DHT22;14613;46.308;25.288;2023-11-19T07:02:04;5.10;90.10
27072;DHT22;14613;46.308;25.288;2023-11-19T07:04:31;5.10;90.10
27072;DHT22;14613;46.308;25.288;2023-11-19T07:06:57;5.20;90.10
27072;DHT22;14613;46.308;25.288;2023-11-19T07:09:22;5.20;90.20
27072;DHT22;14613;46.308;25.288;2023-11-19T07:11:49;5.40;90.40
27072;DHT22;14613;46.308;25.288;2023-11-19T07:14:18;5.50;90.50
27072;DHT22;14613;46.308;25.288;2023-11-19T07:16:44;5.70;90.60
27072;DHT22;14613;46.308;25.288;2023-11-19T07:19:11;5.90;90.50
27072;DHT22;14613;46.308;25.288;2023-11-19T07:21:41;6.00;90.30
27072;DHT22;14613;46.308;25.288;2023-11-19T07:24:09;6.10;90.10
27072;DHT22;14613;46.308;25.288;2023-11-19T07:26:36;6.10;90.10
27072;DHT22;14613;46.308;25.288;2023-11-19T07:29:03;6.20;90.20
27072;DHT22;14613;46.308;25.288;2023-11-19T07:31:28;6.30;90.10
27072;DHT22;14613;46.308;25.288;2023-11-19T07:33:54;6.40;90.00
27072;DHT22;14613;46.308;25.288;2023-11-19T07:36:20;6.40;89.80
27072;DHT22;14613;46.308;25.288;2023-11-19T07:38:46;6.40;89.50
27072;DHT22;14613;46.308;25.288;2023-11-19T07:41:13;6.40;89.90
27072;DHT22;14613;46.308;25.288;2023-11-19T07:43:39;6.50;90.00
27072;DHT22;14613;46.308;25.288;2023-11-19T07:46:11;6.60;90.00
27072;DHT22;14613;46.308;25.288;2023-11-19T07:48:38;6.70;90.20
27072;DHT22;14613;46.308;25.288;2023-11-19T07:51:05;6.80;90.40
27072;DHT22;14613;46.308;25.288;2023-11-19T07:53:31;7.00;90.20
27072;DHT22;14613;46.308;25.288;2023-11-19T07:55:58;7.10;89.90
27072;DHT22;14613;46.308;25.288;2023-11-19T07:58:25;7.10;89.50
27072;DHT22;14613;46.308;25.288;2023-11-19T08:00:51;7.10;89.70
27072;DHT22;14613;46.308;25.288;2023-11-19T08:03:17;7.10;89.50
27072;DHT22;14613;46.308;25.288;2023-11-19T08:05:44;7.00;89.00
27072;DHT22;14613;46.308;25.288;2023-11-19T08:08:10;7.00;88.50
27072;DHT22;14613;46.308;25.288;2023-11-19T08:10:36;6.90;88.30
27072;DHT22;14613;46.308;25.288;2023-11-19T08:13:02;6.80;88.20
27072;DHT22;14613;46.308;25.288;2023-11-19T08:15:28;6.70;88.20
27072;DHT22;14613;46.308;25.288;2023-11-19T08:17:53;6.70;88.30
27072;DHT22;14613;46.308;25.288;2023-11-19T08:20:19;6.60;88.20
27072;DHT22;14613;46.308;25.288;2023-11-19T08:22:45;6.60;88.40
27072;DHT22;14613;46.308;25.288;2023-11-19T08:25:10;6.60;88.60
27072;DHT22;14613;46.308;25.288;2023-11-19T08:27:36;6.60;88.60
27072;DHT22;14613;46.308;25.288;2023-11-19T08:30:02;6.60;88.60
27072;DHT22;14613;46.308;25.288;2023-11-19T08:32:28;6.70;88.60
27072;DHT22;14613;46.308;25.288;2023-11-19T08:34:54;6.70;88.50
27072;DHT22;14613;46.308;25.288;2023-11-19T08:37:19;6.70;88.50
27072;DHT22;14613;46.308;25.288;2023-11-19T08:39:48;6.70;88.50
27072;DHT22;14613;46.308;25.288;2023-11-19T08:42:14;6.70;88.50
27072;DHT22;14613;46.308;25.288;2023-11-19T08:44:39;6.80;88.50
27072;DHT22;14613;46.308;25.288;2023-11-19T08:47:11;6.80;88.40
27072;DHT22;14613;46.308;25.288;2023-11-19T08:49:38;6.80;88.20
27072;DHT22;14613;46.308;25.288;2023-11-19T08:52:04;6.80;88.20
27072;DHT22;14613;46.308;25.288;2023-11-19T08:54:32;6.90;88.10
27072;DHT22;14613;46.308;25.288;2023-11-19T08:56:58;6.90;87.90
27072;DHT22;14613;46.308;25.288;2023-11-19T08:59:25;6.80;87.70
27072;DHT22;14613;46.308;25.288;2023-11-19T09:01:50;6.80;87.80
27072;DHT22;14613;46.308;25.288;2023-11-19T09:04:16;6.80;87.50
27072;DHT22;14613;46.308;25.288;2023-11-19T09:06:42;6.80;87.50
27072;DHT22;14613;46.308;25.288;2023-11-19T09:09:08;6.80;87.50
27072;DHT22;14613;46.308;25.288;2023-11-19T09:11:35;6.80;87.40
27072;DHT22;14613;46.308;25.288;2023-11-19T09:14:00;6.80;87.30
27072;DHT22;14613;46.308;25.288;2023-11-19T09:16:26;6.70;87.10
27072;DHT22;14613;46.308;25.288;2023-11-19T09:18:52;6.70;87.00
27072;DHT22;14613;46.308;25.288;2023-11-19T09:21:18;6.70;87.00
27072;DHT22;14613;46.308;25.288;2023-11-19T09:23:43;6.60;86.90
27072;DHT22;14613;46.308;25.288;2023-11-19T09:26:10;6.60;87.00
27072;DHT22;14613;46.308;25.288;2023-11-19T09:28:36;6.60;87.10
27072;DHT22;14613;46.308;25.288;2023-11-19T09:31:02;6.50;87.10
27072;DHT22;14613;46.308;25.288;2023-11-19T09:33:30;6.50;87.30
27072;DHT22;14613;46.308;25.288;2023-11-19T09:35:56;6.50;87.20
27072;DHT22;14613;46.308;25.288;2023-11-19T09:38:23;6.60;87.20
27072;DHT22;14613;46.308;25.288;2023-11-19T09:40:49;6.60;87.30
27072;DHT22;14613;46.308;25.288;2023-11-19T09:43:18;6.60;87.40
27072;DHT22;14613;46.308;25.288;2023-11-19T09:45:50;6.60;87.20
27072;DHT22;14613;46.308;25.288;2023-11-19T09:48:19;6.60;87.10
27072;DHT22;14613;46.308;25.288;2023-11-19T09:50:48;6.60;86.90
27072;DHT22;14613;46.308;25.288;2023-11-19T09:53:15;6.70;87.00
27072;DHT22;14613;46.308;25.288;2023-11-19T09:55:41;6.70;86.80
27072;DHT22;14613;46.308;25.288;2023-11-19T09:58:08;6.70;86.80
27072;DHT22;14613;46.308;25.288;2023-11-19T10:00:35;6.70;86.80
27072;DHT22;14613;46.308;25.288;2023-11-19T10:03:01;6.70;86.80
27072;DHT22;14613;46.308;25.288;2023-11-19T10:05:27;6.70;86.80
27072;DHT22;14613;46.308;25.288;2023-11-19T10:07:53;6.70;86.60
27072;DHT22;14613;46.308;25.288;2023-11-19T10:10:21;6.80;86.80
27072;DHT22;14613;46.308;25.288;2023-11-19T10:12:46;6.80;86.50
27072;DHT22;14613;46.308;25.288;2023-11-19T10:15:23;6.80;86.50
27072;DHT22;14613;46.308;25.288;2023-11-19T10:17:58;6.80;86.40
27072;DHT22;14613;46.308;25.288;2023-11-19T10:20:24;6.80;86.40
27072;DHT22;14613;46.308;25.288;2023-11-19T10:22:56;6.90;86.50
27072;DHT22;14613;46.308;25.288;2023-11-19T10:25:26;6.90;86.30
27072;DHT22;14613;46.308;25.288;2023-11-19T10:27:53;6.90;86.20
27072;DHT22;14613;46.308;25.288;2023-11-19T10:30:25;6.90;86.20
27072;DHT22;14613;46.308;25.288;2023-11-19T10:35:37;6.90;86.10
27072;DHT22;14613;46.308;25.288;2023-11-19T10:38:15;7.00;86.20
27072;DHT22;14613;46.308;25.288;2023-11-19T10:40:41;6.90;85.90
27072;DHT22;14613;46.308;25.288;2023-11-19T10:43:08;6.90;85.80
27072;DHT22;14613;46.308;25.288;2023-11-19T10:45:38;6.90;85.90
27072;DHT22;14613;46.308;25.288;2023-11-19T10:48:05;7.00;85.80
27072;DHT22;14613;46.308;25.288;2023-11-19T10:50:34;6.90;85.40
27072;DHT22;14613;46.308;25.288;2023-11-19T10:53:02;6.90;85.60
27072;DHT22;14613;46.308;25.288;2023-11-19T10:55:30;6.90;85.70
27072;DHT22;14613;46.308;25.288;2023-11-19T10:58:01;6.90;85.80
27072;DHT22;14613;46.308;25.288;2023-11-19T11:00:37;6.90;85.60
27072;DHT22;14613;46.308;25.288;2023-11-19T11:03:11;6.90;85.50
27072;DHT22;14613;46.308;25.288;2023-11-19T11:05:41;6.90;85.60
27072;DHT22;14613;46.308;25.288;2023-11-19T11:08:07;6.90;85.50
27072;DHT22;14613;46.308;25.288;2023-11-19T11:10:39;6.90;85.50
27072;DHT22;14613;46.308;25.288;2023-11-19T11:13:08;6.90;85.50
27072;DHT22;14613;46.308;25.288;2023-11-19T11:15:34;6.90;85.60
27072;DHT22;14613;46.308;25.288;2023-11-19T11:18:03;7.00;85.50
27072;DHT22;14613;46.308;25.288;2023-11-19T11:20:33;7.10;85.50
27072;DHT22;14613;46.308;25.288;2023-11-19T11:28:47;7.10;85.40
27072;DHT22;14613;46.308;25.288;2023-11-19T11:34:07;7.10;85.70
27072;DHT22;14613;46.308;25.288;2023-11-19T11:39:31;7.30;85.60
27072;DHT22;14613;46.308;25.288;2023-11-19T11:45:06;7.30;84.90
27072;DHT22;14613;46.308;25.288;2023-11-19T11:50:18;7.20;84.70
27072;DHT22;14613;46.308;25.288;2023-11-19T11:55:51;7.10;85.00
27072;DHT22;14613;46.308;25.288;2023-11-19T11:58:18;7.10;86.10
27072;DHT22;14613;46.308;25.288;2023-11-19T12:00:46;7.10;85.00
27072;DHT22;14613;46.308;25.288;2023-11-19T12:03:12;7.20;84.90
27072;DHT22;14613;46.308;25.288;2023-11-19T12:05:40;7.20;84.90
27072;DHT22;14613;46.308;25.288;2023-11-19T12:08:07;7.20;84.80
27072;DHT22;14613;46.308;25.288;2023-11-19T12:10:51;7.20;84.80
27072;DHT22;14613;46.308;25.288;2023-11-19T12:13:20;7.30;84.80
27072;DHT22;14613;46.308;25.288;2023-11-19T12:18:28;7.30;84.70
27072;DHT22;14613;46.308;25.288;2023-11-19T12:20:54;7.30;84.70
27072;DHT22;14613;46.308;25.288;2023-11-19T12:23:20;7.30;84.90
27072;DHT22;14613;46.308;25.288;2023-11-19T12:25:47;7.30;84.90
27072;DHT22;14613;46.308;25.288;2023-11-19T12:28:13;7.40;84.90
27072;DHT22;14613;46.308;25.288;2023-11-19T12:30:39;7.40;84.70
27072;DHT22;14613;46.308;25.288;2023-11-19T12:33:09;7.40;84.70
27072;DHT22;14613;46.308;25.288;2023-11-19T12:35:42;7.30;84.60
27072;DHT22;14613;46.308;25.288;2023-11-19T12:38:17;7.30;85.30
27072;DHT22;14613;46.308;25.288;2023-11-19T12:40:43;7.40;84.70
27072;DHT22;14613;46.308;25.288;2023-11-19T12:43:09;7.40;84.70
27072;DHT22;14613;46.308;25.288;2023-11-19T12:45:35;7.50;84.60
27072;DHT22;14613;46.308;25.288;2023-11-19T12:48:05;7.50;84.50
27072;DHT22;14613;46.308;25.288;2023-11-19T12:53:16;7.50;84.30
27072;DHT22;14613;46.308;25.288;2023-11-19T12:55:41;7.50;84.20
27072;DHT22;14613;46.308;25.288;2023-11-19T12:58:07;7.50;84.20
27072;DHT22;14613;46.308;25.288;2023-11-19T13:00:33;7.60;84.00
27072;DHT22;14613;46.308;25.288;2023-11-19T13:02:58;7.60;83.80
27072;DHT22;14613;46.308;25.288;2023-11-19T13:05:25;7.50;83.80
27072;DHT22;14613;46.308;25.288;2023-11-19T13:08:06;7.50;83.80
27072;DHT22;14613;46.308;25.288;2023-11-19T13:10:33;7.50;83.60
27072;DHT22;14613;46.308;25.288;2023-11-19T13:13:06;7.40;83.50
27072;DHT22;14613;46.308;25.288;2023-11-19T13:15:34;7.40;83.50
27072;DHT22;14613;46.308;25.288;2023-11-19T13:18:00;7.40;83.60
27072;DHT22;14613;46.308;25.288;2023-11-19T13:20:26;7.40;83.60
27072;DHT22;14613;46.308;25.288;2023-11-19T13:23:03;7.40;83.50
27072;DHT22;14613;46.308;25.288;2023-11-19T13:25:30;7.30;83.50
27072;DHT22;14613;46.308;25.288;2023-11-19T13:27:56;7.30;83.60
27072;DHT22;14613;46.308;25.288;2023-11-19T13:30:23;7.30;83.70
27072;DHT22;14613;46.308;25.288;2023-11-19T13:32:49;7.30;83.70
27072;DHT22;14613;46.308;25.288;2023-11-19T13:35:16;7.30;83.70
27072;DHT22;14613;46.308;25.288;2023-11-19T13:37:45;7.30;83.60
27072;DHT22;14613;46.308;25.288;2023-11-19T13:40:12;7.30;83.50
27072;DHT22;14613;46.308;25.288;2023-11-19T13:42:42;7.30;83.50
27072;DHT22;14613;46.308;25.288;2023-11-19T13:45:11;7.30;83.40
27072;DHT22;14613;46.308;25.288;2023-11-19T13:47:45;7.30;83.30
27072;DHT22;14613;46.308;25.288;2023-11-19T13:50:16;7.30;83.20
27072;DHT22;14613;46.308;25.288;2023-11-19T13:52:45;7.20;83.40
27072;DHT22;14613;46.308;25.288;2023-11-19T13:55:13;7.20;83.40
27072;DHT22;14613;46.308;25.288;2023-11-19T13:57:40;7.20;83.50
27072;DHT22;14613;46.308;25.288;2023-11-19T14:00:10;7.20;83.50
27072;DHT22;14613;46.308;25.288;2023-11-19T14:02:45;7.10;83.50
27072;DHT22;14613;46.308;25.288;2023-11-19T14:05:12;7.10;83.60
27072;DHT22;14613;46.308;25.288;2023-11-19T14:07:42;7.00;83.60
27072;DHT22;14613;46.308;25.288;2023-11-19T14:10:08;7.00;83.70
27072;DHT22;14613;46.308;25.288;2023-11-19T14:12:37;7.00;83.80
27072;DHT22;14613;46.308;25.288;2023-11-19T14:15:04;7.00;83.80
27072;DHT22;14613;46.308;25.288;2023-11-19T14:17:32;7.00;83.80
27072;DHT22;14613;46.308;25.288;2023-11-19T14:19:58;7.00;83.70
27072;DHT22;14613;46.308;25.288;2023-11-19T14:22:24;7.00;83.70
27072;DHT22;14613;46.308;25.288;2023-11-19T14:24:50;7.00;83.70
27072;DHT22;14613;46.308;25.288;2023-11-19T14:27:16;7.00;83.70
27072;DHT22;14613;46.308;25.288;2023-11-19T14:29:45;6.90;83.70
27072;DHT22;14613;46.308;25.288;2023-11-19T14:32:11;6.90;83.80
27072;DHT22;14613;46.308;25.288;2023-11-19T14:34:37;6.90;83.80
27072;DHT22;14613;46.308;25.288;2023-11-19T14:37:03;6.90;84.00
27072;DHT22;14613;46.308;25.288;2023-11-19T14:39:28;6.80;83.90
27072;DHT22;14613;46.308;25.288;2023-11-19T14:41:57;6.80;83.80
27072;DHT22;14613;46.308;25.288;2023-11-19T14:44:27;6.80;83.80
27072;DHT22;14613;46.308;25.288;2023-11-19T14:46:52;6.80;83.90
27072;DHT22;14613;46.308;25.288;2023-11-19T14:49:18;6.80;84.00
27072;DHT22;14613;46.308;25.288;2023-11-19T14:51:44;6.70;84.00
27072;DHT22;14613;46.308;25.288;2023-11-19T14:54:09;6.70;83.90
27072;DHT22;14613;46.308;25.288;2023-11-19T14:56:35;6.70;84.10
27072;DHT22;14613;46.308;25.288;2023-11-19T14:59:01;6.70;84.10
27072;DHT22;14613;46.308;25.288;2023-11-19T15:01:27;6.70;84.20
27072;DHT22;14613;46.308;25.288;2023-11-19T15:03:54;6.70;84.20
27072;DHT22;14613;46.308;25.288;2023-11-19T15:06:23;6.70;84.20
27072;DHT22;14613;46.308;25.288;2023-11-19T15:08:50;6.70;84.20
27072;DHT22;14613;46.308;25.288;2023-11-19T15:11:16;6.70;84.20
27072;DHT22;14613;46.308;25.288;2023-11-19T15:13:42;6.70;84.30
27072;DHT22;14613;46.308;25.288;2023-11-19T15:16:08;6.60;84.20
27072;DHT22;14613;46.308;25.288;2023-11-19T15:18:37;6.60;84.20
27072;DHT22;14613;46.308;25.288;2023-11-19T15:21:03;6.60;84.30
27072;DHT22;14613;46.308;25.288;2023-11-19T15:23:29;6.60;84.30
27072;DHT22;14613;46.308;25.288;2023-11-19T15:25:55;6.50;84.20
27072;DHT22;14613;46.308;25.288;2023-11-19T15:28:21;6.50;84.20
27072;DHT22;14613;46.308;25.288;2023-11-19T15:30:47;6.50;84.30
27072;DHT22;14613;46.308;25.288;2023-11-19T15:33:13;6.50;84.40
27072;DHT22;14613;46.308;25.288;2023-11-19T15:35:38;6.50;84.30
27072;DHT22;14613;46.308;25.288;2023-11-19T15:38:07;6.50;84.30
27072;DHT22;14613;46.308;25.288;2023-11-19T15:40:35;6.50;84.30
27072;DHT22;14613;46.308;25.288;2023-11-19T15:43:03;6.50;84.30
27072;DHT22;14613;46.308;25.288;2023-11-19T15:45:29;6.50;84.30
27072;DHT22;14613;46.308;25.288;2023-11-19T15:47:55;6.40;84.40
27072;DHT22;14613;46.308;25.288;2023-11-19T15:50:21;6.40;84.40
27072;DHT22;14613;46.308;25.288;2023-11-19T15:52:46;6.40;84.50
27072;DHT22;14613;46.308;25.288;2023-11-19T15:55:13;6.40;84.50
27072;DHT22;14613;46.308;25.288;2023-11-19T15:57:39;6.40;84.50